Time;durP1;ratioP1;P1;durP2;ratioP2;P2;SDS_P1;SDS_P2;PMS_P1;PMS_P2;Temp;Humidity;BMP_temperature;BMP_pressure;BME280_temperature;BME280_humidity;BME280_pressure;Samples;Min_cycle;Max_cycle;Signal;HPM_P1;HPM_P2
2023/10/03 00:00:34;;;;;;;0.00;0.00;;;;;;;19.34;100.00;100831.03;5108349;27;20040;-47
2023/10/03 00:03:00;;;;;;;0.00;0.00;;;;;;;19.35;100.00;100821.75;5105676;28;20540;-46
2023/10/03 00:05:31;;;;;;;0.00;0.00;;;;;;;19.34;100.00;100825.56;5105782;28;20064;-47
2023/10/03 00:08:00;;;;;;;0.00;0.00;;;;;;;19.34;100.00;100820.94;5104773;28;20353;-48
2023/10/03 00:10:28;;;;;;;0.00;0.00;;;;;;;19.32;100.00;100823.06;5106658;28;20031;-46
2023/10/03 00:12:54;;;;;;;0.00;0.00;;;;;;;19.30;100.00;100820.59;5106322;27;20511;-45
2023/10/03 00:15:21;;;;;;;0.00;0.00;;;;;;;19.35;100.00;100814.41;5103597;28;20031;-44
2023/10/03 00:17:47;;;;;;;0.00;0.00;;;;;;;19.35;100.00;100806.22;5105955;28;20042;-46
2023/10/03 00:20:13;;;;;;;0.00;0.00;;;;;;;19.36;100.00;100798.88;5105825;28;20123;-48
2023/10/03 00:22:39;;;;;;;0.00;0.00;;;;;;;19.42;100.00;100792.44;5106027;28;20043;-43
2023/10/03 00:25:17;;;;;;;0.00;0.00;;;;;;;19.45;100.00;100784.59;5105007;27;20051;-46
2023/10/03 00:27:46;;;;;;;0.00;0.00;;;;;;;19.46;100.00;100780.81;5105433;27;20031;-45
2023/10/03 00:30:12;;;;;;;0.00;0.00;;;;;;;19.47;100.00;100784.34;5107005;28;20035;-44
2023/10/03 00:32:40;;;;;;;0.00;0.00;;;;;;;19.50;100.00;100768.31;5106107;27;20119;-46
2023/10/03 00:35:06;;;;;;;0.00;0.00;;;;;;;19.49;100.00;100769.41;5104157;28;20073;-48
2023/10/03 00:37:32;;;;;;;0.00;0.00;;;;;;;19.50;100.00;100757.41;5100597;28;20039;-46
2023/10/03 00:39:58;;;;;;;0.00;0.00;;;;;;;19.49;100.00;100766.66;5104686;28;20086;-45
2023/10/03 00:42:24;;;;;;;0.00;0.00;;;;;;;19.50;100.00;100749.22;5104757;28;20047;-47
2023/10/03 00:44:49;;;;;;;0.00;0.00;;;;;;;19.52;100.00;100738.88;5105972;27;20482;-44
2023/10/03 00:47:15;;;;;;;0.00;0.00;;;;;;;19.56;100.00;100750.13;5107265;28;20028;-45
2023/10/03 00:49:41;;;;;;;0.00;0.00;;;;;;;19.59;100.00;100748.81;5106311;28;20515;-45
2023/10/03 00:52:09;;;;;;;0.00;0.00;;;;;;;19.62;100.00;100729.25;5102172;28;20043;-42
2023/10/03 00:54:34;;;;;;;0.00;0.00;;;;;;;19.65;100.00;100721.38;5101451;28;20027;-45
2023/10/03 00:57:01;;;;;;;0.00;0.00;;;;;;;19.70;100.00;100731.59;5100337;28;20067;-45
2023/10/03 00:59:28;;;;;;;0.00;0.00;;;;;;;19.73;100.00;100720.19;5104040;28;20136;-43
2023/10/03 01:02:05;;;;;;;0.00;0.00;;;;;;;19.74;100.00;100710.91;5101167;28;20148;-47
2023/10/03 01:04:31;;;;;;;0.00;0.00;;;;;;;19.76;100.00;100697.03;5102846;28;20054;-47
2023/10/03 01:06:56;;;;;;;0.00;0.00;;;;;;;19.79;100.00;100694.63;5103482;28;20020;-46
2023/10/03 01:09:27;;;;;;;0.00;0.00;;;;;;;19.80;100.00;100690.81;5104909;28;20059;-46
2023/10/03 01:11:53;;;;;;;0.00;0.00;;;;;;;19.77;100.00;100688.56;5103996;28;20025;-45
2023/10/03 01:14:19;;;;;;;0.00;0.00;;;;;;;19.76;100.00;100697.84;5103773;27;20492;-46
2023/10/03 01:16:45;;;;;;;0.00;0.00;;;;;;;19.76;100.00;100705.22;5104998;28;20035;-43
2023/10/03 01:19:13;;;;;;;0.00;0.00;;;;;;;19.79;100.00;100702.81;5102867;28;20558;-43
2023/10/03 01:21:41;;;;;;;0.00;0.00;;;;;;;19.82;100.00;100710.50;5104353;28;20038;-48
2023/10/03 01:24:08;;;;;;;0.00;0.00;;;;;;;19.79;100.00;100711.00;5103106;28;20042;-48
2023/10/03 01:26:34;;;;;;;0.00;0.00;;;;;;;19.74;100.00;100700.00;5104263;28;20503;-45
2023/10/03 01:28:59;;;;;;;0.00;0.00;;;;;;;19.72;100.00;100704.84;5102992;28;20107;-46
2023/10/03 01:31:25;;;;;;;0.00;0.00;;;;;;;19.67;100.00;100708.34;5103336;28;20432;-45
2023/10/03 01:33:50;;;;;;;0.00;0.00;;;;;;;19.64;100.00;100699.78;5103278;28;20168;-45
2023/10/03 01:36:16;;;;;;;0.00;0.00;;;;;;;19.63;100.00;100698.94;5106521;28;20024;-44
2023/10/03 01:38:42;;;;;;;0.00;0.00;;;;;;;19.62;100.00;100696.47;5100293;28;20119;-44
2023/10/03 01:41:08;;;;;;;0.00;0.00;;;;;;;19.61;100.00;100700.25;5099536;28;20119;-44
2023/10/03 01:43:33;;;;;;;0.00;0.00;;;;;;;19.62;100.00;100701.94;5098308;28;20373;-49
2023/10/03 01:45:58;;;;;;;0.00;0.00;;;;;;;19.63;100.00;100703.59;5105504;28;20536;-45
2023/10/03 01:48:24;;;;;;;0.00;0.00;;;;;;;19.66;100.00;100690.28;5102678;28;20028;-47
2023/10/03 01:50:50;;;;;;;0.00;0.00;;;;;;;19.74;100.00;100675.41;5107833;28;20043;-46
2023/10/03 01:53:16;;;;;;;0.00;0.00;;;;;;;19.81;100.00;100669.81;5109899;27;20045;-44
2023/10/03 01:55:42;;;;;;;0.00;0.00;;;;;;;19.84;100.00;100661.94;5108570;28;20050;-46
2023/10/03 01:58:08;;;;;;;0.00;0.00;;;;;;;19.88;100.00;100664.97;5108375;27;20036;-46
2023/10/03 02:00:36;;;;;;;0.00;0.00;;;;;;;19.92;100.00;100663.44;5104421;28;20052;-46
2023/10/03 02:03:05;;;;;;;0.00;0.00;;;;;;;19.93;100.00;100659.59;5108702;28;20023;-45
2023/10/03 02:05:33;;;;;;;0.00;0.00;;;;;;;19.96;100.00;100648.22;5105812;28;20130;-45
2023/10/03 02:07:58;;;;;;;0.00;0.00;;;;;;;19.98;100.00;100656.97;5109103;28;20145;-46
2023/10/03 02:10:23;;;;;;;0.00;0.00;;;;;;;19.99;100.00;100652.34;5107571;28;20134;-43
2023/10/03 02:12:49;;;;;;;0.00;0.00;;;;;;;20.03;100.00;100646.13;5106733;27;20342;-46
2023/10/03 02:15:25;;;;;;;0.00;0.00;;;;;;;20.06;100.00;100634.69;5109167;28;20393;-48
2023/10/03 02:17:52;;;;;;;0.00;0.00;;;;;;;20.06;100.00;100642.88;5108893;27;20035;-45
2023/10/03 02:20:25;;;;;;;0.00;0.00;;;;;;;20.03;100.00;100642.56;5109625;28;20081;-44
2023/10/03 02:22:54;;;;;;;0.00;0.00;;;;;;;20.02;100.00;100643.66;5109062;28;20023;-46
2023/10/03 02:25:24;;;;;;;0.00;0.00;;;;;;;20.02;100.00;100646.38;5112834;27;20023;-43
2023/10/03 02:27:51;;;;;;;0.35;0.00;;;;;;;20.00;100.00;100651.25;5109088;28;20053;-47
2023/10/03 02:30:23;;;;;;;0.00;0.00;;;;;;;20.06;100.00;100672.09;5108272;28;20084;-44
2023/10/03 02:32:52;;;;;;;0.00;0.00;;;;;;;20.07;100.00;100657.38;5108881;28;20039;-48
2023/10/03 02:35:21;;;;;;;0.00;0.00;;;;;;;20.09;100.00;100677.91;5108199;28;20085;-45
2023/10/03 02:37:47;;;;;;;0.00;0.00;;;;;;;20.07;100.00;100671.06;5107715;28;20027;-45
2023/10/03 02:40:14;;;;;;;0.00;0.00;;;;;;;20.04;100.00;100674.28;5108896;28;20040;-44
2023/10/03 02:42:40;;;;;;;0.00;0.00;;;;;;;19.95;100.00;100680.13;5106150;28;20135;-42
2023/10/03 02:45:09;;;;;;;0.00;0.00;;;;;;;19.87;100.00;100691.47;5104822;28;20119;-43
2023/10/03 02:47:36;;;;;;;0.00;0.00;;;;;;;19.74;100.00;100678.13;5107017;28;20030;-43
2023/10/03 02:50:01;;;;;;;0.00;0.00;;;;;;;19.67;100.00;100702.06;5107452;28;20381;-43
2023/10/03 02:52:27;;;;;;;0.00;0.00;;;;;;;19.58;100.00;100690.66;5106618;28;20074;-44
2023/10/03 02:54:52;;;;;;;0.00;0.00;;;;;;;19.47;100.00;100684.19;5107620;28;20039;-47
2023/10/03 02:57:18;;;;;;;0.00;0.00;;;;;;;19.43;100.00;100693.97;5107123;28;20482;-48
2023/10/03 02:59:44;;;;;;;0.00;0.00;;;;;;;19.36;100.00;100704.19;5107114;28;20166;-43
2023/10/03 03:02:14;;;;;;;0.00;0.00;;;;;;;19.23;100.00;100709.94;5107385;27;20123;-46
2023/10/03 03:04:41;;;;;;;0.00;0.00;;;;;;;19.15;100.00;100707.59;5106918;28;20036;-43
2023/10/03 03:07:07;;;;;;;0.00;0.00;;;;;;;19.13;100.00;100710.53;5107933;28;20027;-43
2023/10/03 03:09:35;;;;;;;0.00;0.00;;;;;;;19.02;100.00;100720.44;5106654;28;20759;-43
2023/10/03 03:12:01;;;;;;;0.00;0.00;;;;;;;18.99;100.00;100717.34;5107045;28;20028;-43
2023/10/03 03:14:27;;;;;;;0.00;0.00;;;;;;;18.90;100.00;100719.59;5102542;28;20138;-46
2023/10/03 03:16:53;;;;;;;0.00;0.00;;;;;;;18.88;100.00;100723.66;5102754;28;20027;-42
2023/10/03 03:19:19;;;;;;;0.00;0.00;;;;;;;18.80;100.00;100727.56;5106524;27;20024;-46
2023/10/03 03:21:45;;;;;;;0.00;0.00;;;;;;;18.77;100.00;100728.91;5104557;28;20059;-44
2023/10/03 03:24:10;;;;;;;0.00;0.00;;;;;;;18.73;100.00;100735.03;5107764;28;20549;-47
2023/10/03 03:26:39;;;;;;;0.00;0.00;;;;;;;18.65;100.00;100728.88;5106039;28;20085;-44
2023/10/03 03:29:20;;;;;;;0.00;0.00;;;;;;;18.60;100.00;100745.09;5103649;28;20054;-44
2023/10/03 03:31:46;;;;;;;0.00;0.00;;;;;;;18.52;100.00;100725.56;5105614;28;20042;-45
2023/10/03 03:34:12;;;;;;;0.00;0.00;;;;;;;18.54;100.00;100729.72;5104537;28;20066;-44
2023/10/03 03:36:40;;;;;;;0.00;0.00;;;;;;;18.48;100.00;100746.16;5104294;28;20485;-44
2023/10/03 03:39:14;;;;;;;0.00;0.00;;;;;;;18.51;100.00;100737.50;5105726;28;20031;-44
2023/10/03 03:41:39;;;;;;;0.00;0.00;;;;;;;18.49;100.00;100765.03;5104047;28;20499;-44
2023/10/03 03:44:11;;;;;;;0.00;0.00;;;;;;;18.43;100.00;100749.59;5103061;28;20051;-45
2023/10/03 03:46:37;;;;;;;0.00;0.00;;;;;;;18.40;100.00;100753.66;5105033;28;20127;-45
2023/10/03 03:49:04;;;;;;;0.00;0.00;;;;;;;18.41;100.00;100746.28;5105979;27;20114;-46
2023/10/03 03:51:30;;;;;;;0.00;0.00;;;;;;;18.38;100.00;100739.44;5104777;28;20056;-44
2023/10/03 03:53:55;;;;;;;0.00;0.00;;;;;;;18.35;100.00;100745.34;5105384;28;20064;-43
2023/10/03 03:56:21;;;;;;;0.00;0.00;;;;;;;18.35;100.00;100736.31;5105008;28;20362;-44
2023/10/03 03:58:48;;;;;;;0.00;0.00;;;;;;;18.32;100.00;100732.19;5105318;28;20126;-44
2023/10/03 04:01:15;;;;;;;0.00;0.00;;;;;;;18.32;100.00;100747.69;5104077;28;20130;-45
2023/10/03 04:03:42;;;;;;;0.00;0.00;;;;;;;18.34;100.00;100740.94;5105224;28;20055;-46
2023/10/03 04:06:10;;;;;;;0.00;0.00;;;;;;;18.31;100.00;100730.53;5105391;28;20027;-47
2023/10/03 04:08:36;;;;;;;0.00;0.00;;;;;;;18.32;100.00;100726.72;5104823;28;20035;-45
2023/10/03 04:11:05;;;;;;;0.00;0.00;;;;;;;18.31;100.00;100725.09;5104597;28;20420;-46
2023/10/03 04:13:33;;;;;;;0.00;0.00;;;;;;;18.32;100.00;100717.72;5102311;28;20062;-45
2023/10/03 04:16:01;;;;;;;0.00;0.00;;;;;;;18.36;100.00;100724.38;5105220;28;20032;-44
2023/10/03 04:18:27;;;;;;;0.00;0.00;;;;;;;18.34;100.00;100726.50;5103702;27;20077;-46
2023/10/03 04:20:53;;;;;;;0.00;0.00;;;;;;;18.36;100.00;100727.94;5103729;28;20065;-46
2023/10/03 04:23:19;;;;;;;0.00;0.00;;;;;;;18.34;100.00;100723.78;5105351;28;20030;-47
2023/10/03 04:25:44;;;;;;;0.00;0.00;;;;;;;18.36;100.00;100724.38;5105322;28;20040;-45
2023/10/03 04:28:11;;;;;;;0.00;0.00;;;;;;;18.40;100.00;100725.53;5104780;27;20036;-46
2023/10/03 04:30:39;;;;;;;0.00;0.00;;;;;;;18.42;100.00;100720.69;5101396;28;20042;-45
2023/10/03 04:33:04;;;;;;;0.00;0.00;;;;;;;18.43;100.00;100722.34;5100713;28;20441;-43
2023/10/03 04:35:29;;;;;;;0.00;0.00;;;;;;;18.45;100.00;100720.22;5101835;28;20110;-47
2023/10/03 04:37:57;;;;;;;0.00;0.00;;;;;;;18.40;100.00;100723.69;5100595;28;20081;-45
2023/10/03 04:40:31;;;;;;;0.00;0.00;;;;;;;18.42;100.00;100709.78;5103164;28;20039;-45
2023/10/03 04:42:57;;;;;;;0.00;0.00;;;;;;;18.46;100.00;100715.59;5104478;28;20035;-46
2023/10/03 04:45:26;;;;;;;0.00;0.00;;;;;;;18.47;100.00;100701.75;5100641;28;20092;-44
2023/10/03 04:47:52;;;;;;;0.00;0.00;;;;;;;18.47;100.00;100728.16;5101280;28;20031;-44
2023/10/03 04:50:18;;;;;;;0.00;0.00;;;;;;;18.50;100.00;100727.69;5103662;28;20494;-48
2023/10/03 04:52:53;;;;;;;0.10;0.00;;;;;;;18.52;100.00;100737.28;5106582;28;20111;-49
2023/10/03 04:55:20;;;;;;;0.00;0.00;;;;;;;18.46;100.00;100738.25;5101704;28;20036;-45
2023/10/03 04:57:50;;;;;;;0.00;0.00;;;;;;;18.43;100.00;100738.69;5103949;27;20036;-45
2023/10/03 05:00:18;;;;;;;0.00;0.00;;;;;;;18.41;100.00;100751.75;5109527;28;20426;-43
2023/10/03 05:02:48;;;;;;;0.00;0.00;;;;;;;18.38;100.00;100752.22;5108367;28;20070;-45
2023/10/03 05:05:22;;;;;;;0.00;0.00;;;;;;;18.29;100.00;100743.53;5108410;28;20136;-45
2023/10/03 05:07:56;;;;;;;0.00;0.00;;;;;;;18.28;100.00;100747.34;5105276;28;20451;-48
2023/10/03 05:10:22;;;;;;;0.00;0.00;;;;;;;18.22;100.00;100748.31;5106602;28;20126;-45
2023/10/03 05:12:48;;;;;;;0.00;0.00;;;;;;;18.17;100.00;100754.44;5099760;27;20607;-46
2023/10/03 05:15:17;;;;;;;0.00;0.00;;;;;;;18.13;100.00;100753.25;5104885;28;20024;-47
2023/10/03 05:17:43;;;;;;;0.00;0.00;;;;;;;18.12;100.00;100748.88;5105718;28;20119;-44
2023/10/03 05:20:15;;;;;;;0.00;0.00;;;;;;;18.07;100.00;100780.59;5102898;28;20084;-46
2023/10/03 05:22:41;;;;;;;0.00;0.00;;;;;;;17.97;100.00;100783.88;5102268;28;20759;-46
2023/10/03 05:25:12;;;;;;;0.00;0.00;;;;;;;17.87;100.00;100780.88;5099499;28;20066;-45
2023/10/03 05:27:41;;;;;;;0.00;0.00;;;;;;;17.78;100.00;100764.84;5103722;28;20035;-43
2023/10/03 05:30:08;;;;;;;0.00;0.00;;;;;;;17.72;100.00;100765.78;5105254;28;20624;-46
2023/10/03 05:32:34;;;;;;;0.00;0.00;;;;;;;17.69;100.00;100785.31;5105174;28;20031;-44
2023/10/03 05:35:00;;;;;;;0.00;0.00;;;;;;;17.68;100.00;100807.28;5103983;28;20176;-44
2023/10/03 05:37:25;;;;;;;0.00;0.00;;;;;;;17.65;100.00;100803.13;5102061;28;20024;-44
2023/10/03 05:39:51;;;;;;;0.00;0.00;;;;;;;17.63;100.00;100805.25;5104554;28;20024;-50
2023/10/03 05:42:20;;;;;;;0.00;0.00;;;;;;;17.60;100.00;100811.16;5105062;28;20552;-44
2023/10/03 05:44:45;;;;;;;0.00;0.00;;;;;;;17.62;100.00;100808.22;5100137;28;20023;-44
2023/10/03 05:47:11;;;;;;;0.00;0.00;;;;;;;17.60;100.00;100811.16;5104005;28;20715;-44
2023/10/03 05:49:37;;;;;;;0.00;0.00;;;;;;;17.60;100.00;100815.78;5104168;28;20039;-45
2023/10/03 05:52:03;;;;;;;0.00;0.00;;;;;;;17.63;100.00;100804.44;5105407;28;20024;-45
2023/10/03 05:54:30;;;;;;;0.30;0.00;;;;;;;17.66;100.00;100799.34;5103038;28;20028;-49
2023/10/03 05:56:56;;;;;;;;;;;;;;;17.64;100.00;100800.63;5103704;28;20036;-44
2023/10/03 05:59:21;;;;;;;0.00;0.00;;;;;;;17.65;100.00;100830.34;5099977;28;19916;-47
2023/10/03 06:01:48;;;;;;;0.00;0.00;;;;;;;17.66;100.00;100842.88;5105184;28;20705;-44
2023/10/03 06:04:13;;;;;;;0.00;0.00;;;;;;;17.60;100.00;100849.25;5103814;28;20032;-46
2023/10/03 06:06:39;;;;;;;0.00;0.00;;;;;;;17.59;100.00;100850.31;5106261;28;20733;-44
2023/10/03 06:09:04;;;;;;;0.00;0.00;;;;;;;17.59;100.00;100866.66;5105392;28;20028;-48
2023/10/03 06:11:30;;;;;;;0.00;0.00;;;;;;;17.65;100.00;100868.47;5107457;28;20039;-46
2023/10/03 06:13:57;;;;;;;0.00;0.00;;;;;;;17.64;100.00;100872.25;5103807;28;20693;-46
2023/10/03 06:16:23;;;;;;;0.00;0.00;;;;;;;17.64;100.00;100883.13;5107047;28;20024;-47
2023/10/03 06:18:50;;;;;;;0.00;0.00;;;;;;;17.63;100.00;100903.22;5105957;28;20039;-50
2023/10/03 06:21:16;;;;;;;0.00;0.00;;;;;;;17.55;100.00;100917.13;5105247;27;20114;-46
2023/10/03 06:23:41;;;;;;;0.00;0.00;;;;;;;17.49;100.00;100924.31;5107488;28;20119;-44
2023/10/03 06:26:06;;;;;;;0.00;0.00;;;;;;;17.47;100.00;100914.72;5106548;28;20521;-45
2023/10/03 06:28:32;;;;;;;0.00;0.00;;;;;;;17.42;100.00;100925.44;5102410;28;20660;-45
2023/10/03 06:30:57;;;;;;;0.00;0.00;;;;;;;17.35;100.00;100936.38;5103226;28;20637;-46
2023/10/03 06:33:22;;;;;;;0.00;0.00;;;;;;;17.29;100.00;100929.13;5104788;28;20389;-46
2023/10/03 06:35:50;;;;;;;0.00;0.00;;;;;;;17.14;100.00;100921.34;5108919;27;20035;-46
2023/10/03 06:38:16;;;;;;;0.00;0.00;;;;;;;17.12;100.00;100928.88;5111153;28;20066;-45
2023/10/03 06:40:42;;;;;;;0.00;0.00;;;;;;;17.01;100.00;100943.19;5110699;27;20063;-44
2023/10/03 06:43:07;;;;;;;0.00;0.00;;;;;;;16.96;100.00;100967.50;5111794;27;20477;-43
2023/10/03 06:45:32;;;;;;;0.00;0.00;;;;;;;16.84;100.00;100957.31;5111900;28;20042;-45
2023/10/03 06:48:03;;;;;;;0.00;0.00;;;;;;;16.74;100.00;100962.38;5111821;27;20019;-47
2023/10/03 06:50:29;;;;;;;0.00;0.00;;;;;;;16.72;100.00;100988.13;5112452;28;20026;-45
2023/10/03 06:52:55;;;;;;;0.00;0.00;;;;;;;16.60;100.00;101005.13;5110001;28;20020;-48
2023/10/03 06:55:20;;;;;;;0.00;0.00;;;;;;;16.52;100.00;101016.25;5111321;28;20028;-44
2023/10/03 06:57:45;;;;;;;0.00;0.00;;;;;;;16.45;100.00;101021.69;5111458;28;20036;-47
2023/10/03 07:00:13;;;;;;;0.00;0.00;;;;;;;16.42;100.00;101019.41;5109903;28;20056;-47
2023/10/03 07:02:39;;;;;;;0.00;0.00;;;;;;;16.40;100.00;101047.84;5111682;28;20043;-47
2023/10/03 07:05:05;;;;;;;0.00;0.00;;;;;;;16.42;100.00;101054.75;5111197;28;20031;-47
2023/10/03 07:07:31;;;;;;;0.00;0.00;;;;;;;16.49;100.00;101064.75;5111121;28;20032;-48
2023/10/03 07:09:56;;;;;;;0.00;0.00;;;;;;;16.51;100.00;101058.06;5109964;28;20031;-47
2023/10/03 07:12:24;;;;;;;0.00;0.00;;;;;;;16.50;100.00;101056.38;5111642;28;20119;-48
2023/10/03 07:14:50;;;;;;;0.00;0.00;;;;;;;16.56;100.00;101057.41;5111374;28;20035;-50
2023/10/03 07:17:15;;;;;;;0.00;0.00;;;;;;;16.52;100.00;101061.59;5109549;28;20039;-46
2023/10/03 07:19:40;;;;;;;0.00;0.00;;;;;;;16.52;100.00;101086.06;5110326;27;20152;-48
2023/10/03 07:22:06;;;;;;;0.00;0.00;;;;;;;16.45;100.00;101084.19;5110473;28;20510;-48
2023/10/03 07:24:32;;;;;;;0.00;0.00;;;;;;;16.45;100.00;101086.91;5110600;28;20119;-47
2023/10/03 07:27:01;;;;;;;0.00;0.00;;;;;;;16.41;100.00;101080.25;5110388;28;20127;-47
2023/10/03 07:29:27;;;;;;;0.00;0.00;;;;;;;16.38;100.00;101061.66;5110850;28;20446;-48
2023/10/03 07:31:53;;;;;;;0.00;0.00;;;;;;;16.35;100.00;101061.25;5109481;28;20031;-45
2023/10/03 07:34:18;;;;;;;0.00;0.00;;;;;;;16.42;100.00;101081.91;5113289;27;20042;-49
2023/10/03 07:36:45;;;;;;;0.00;0.00;;;;;;;16.44;100.00;101082.53;5105930;28;20024;-42
2023/10/03 07:39:11;;;;;;;0.00;0.00;;;;;;;16.53;100.00;101082.28;5109659;28;20628;-47
2023/10/03 07:41:36;;;;;;;0.00;0.00;;;;;;;16.57;100.00;101072.66;5100436;28;20062;-48
2023/10/03 07:44:04;;;;;;;0.00;0.00;;;;;;;16.65;100.00;101088.72;5111453;28;20130;-48
2023/10/03 07:46:29;;;;;;;;;;;;;;;16.67;100.00;101095.59;5113630;28;20019;-47
2023/10/03 07:48:54;;;;;;;0.00;0.00;;;;;;;16.64;100.00;101108.78;5113790;28;19914;-47
2023/10/03 07:51:31;;;;;;;0.00;0.00;;;;;;;16.61;100.00;101118.22;5112906;28;20353;-46
2023/10/03 07:53:57;;;;;;;0.00;0.00;;;;;;;16.58;100.00;101139.53;5104978;28;20028;-47
2023/10/03 07:56:43;;;;;;;0.00;0.00;;;;;;;16.57;100.00;101140.59;5093953;28;20166;-46
2023/10/03 07:59:09;;;;;;;0.00;0.00;;;;;;;16.61;100.00;101139.09;5112949;27;20078;-47
2023/10/03 08:01:38;;;;;;;0.00;0.00;;;;;;;16.60;100.00;101159.19;5112127;28;20071;-46
2023/10/03 08:04:08;;;;;;;0.00;0.00;;;;;;;16.58;100.00;101166.72;5103365;28;20202;-46
2023/10/03 08:06:34;;;;;;;0.00;0.00;;;;;;;16.62;100.00;101170.69;5104410;28;20031;-46
2023/10/03 08:09:08;;;;;;;0.00;0.00;;;;;;;16.56;100.00;101169.66;5098327;28;20024;-47
2023/10/03 08:11:35;;;;;;;0.00;0.00;;;;;;;16.60;100.00;101165.44;5093051;28;20036;-44
2023/10/03 08:14:17;;;;;;;0.00;0.00;;;;;;;16.65;100.00;101170.25;5100308;28;20031;-46
2023/10/03 08:16:46;;;;;;;0.00;0.00;;;;;;;16.66;100.00;101196.34;5092710;28;20028;-49
2023/10/03 08:19:24;;;;;;;0.00;0.00;;;;;;;16.64;100.00;101203.88;5104179;27;20530;-44
2023/10/03 08:21:52;;;;;;;0.00;0.00;;;;;;;16.71;100.00;101203.88;5113566;28;20043;-50
2023/10/03 08:24:24;;;;;;;0.00;0.00;;;;;;;16.73;100.00;101199.91;5111714;28;20111;-45
2023/10/03 08:26:51;;;;;;;0.00;0.00;;;;;;;16.73;100.00;101199.91;5113270;28;20381;-44
2023/10/03 08:29:23;;;;;;;0.00;0.00;;;;;;;16.73;100.00;101201.78;5113599;27;20028;-45
2023/10/03 08:31:58;;;;;;;0.00;0.00;;;;;;;16.70;100.00;101213.09;5099579;28;20398;-47
2023/10/03 08:34:27;;;;;;;0.00;0.00;;;;;;;16.59;100.00;101212.69;5105912;28;20092;-42
2023/10/03 08:36:58;;;;;;;0.00;0.00;;;;;;;16.51;100.00;101228.38;5106492;28;20042;-46
2023/10/03 08:39:25;;;;;;;0.00;0.00;;;;;;;16.46;100.00;101235.28;5097314;28;20036;-45
2023/10/03 08:42:12;;;;;;;0.00;0.00;;;;;;;16.44;100.00;101229.22;5101018;28;20039;-48
2023/10/03 08:44:49;;;;;;;0.00;0.00;;;;;;;16.49;100.00;101219.63;5096428;28;20429;-46
2023/10/03 08:47:16;;;;;;;0.00;0.00;;;;;;;16.53;100.00;101234.44;5107890;28;20024;-45
2023/10/03 08:49:42;;;;;;;0.00;0.00;;;;;;;16.62;100.00;101227.75;5093081;28;20031;-45
2023/10/03 08:52:09;;;;;;;0.00;0.00;;;;;;;16.65;100.00;101233.59;5104966;28;20032;-45
2023/10/03 08:54:39;;;;;;;0.00;0.00;;;;;;;16.71;100.00;101229.16;5096833;28;20462;-50
2023/10/03 08:57:05;;;;;;;0.00;0.00;;;;;;;16.65;100.00;101255.31;5109390;28;20039;-47
2023/10/03 08:59:31;;;;;;;0.00;0.00;;;;;;;16.55;100.00;101271.22;5108111;27;20122;-44
2023/10/03 09:01:58;;;;;;;0.00;0.00;;;;;;;16.30;100.00;101292.78;5110541;27;20046;-47
2023/10/03 09:04:25;;;;;;;0.00;0.00;;;;;;;15.99;100.00;101305.06;5109136;28;20436;-48
2023/10/03 09:06:50;;;;;;;0.00;0.00;;;;;;;15.83;100.00;101310.88;5110869;28;20116;-45
2023/10/03 09:09:16;;;;;;;0.00;0.00;;;;;;;15.66;100.00;101315.78;5112363;28;20047;-46
2023/10/03 09:11:50;;;;;;;0.00;0.00;;;;;;;15.59;100.00;101307.66;5112732;28;20028;-45
2023/10/03 09:14:21;;;;;;;0.00;0.00;;;;;;;15.63;100.00;101310.78;5104026;28;20048;-44
2023/10/03 09:16:50;;;;;;;0.00;0.00;;;;;;;15.65;100.00;101324.16;5111958;28;20050;-46
2023/10/03 09:19:25;;;;;;;0.00;0.00;;;;;;;15.72;100.00;101336.75;5102963;28;20020;-46
2023/10/03 09:21:52;;;;;;;0.00;0.00;;;;;;;15.73;100.00;101332.16;5089482;28;20035;-45
2023/10/03 09:24:22;;;;;;;0.00;0.00;;;;;;;15.73;100.00;101343.81;5108889;28;20055;-50
2023/10/03 09:26:51;;;;;;;0.00;0.00;;;;;;;15.73;100.00;101353.84;5109497;28;20131;-45
2023/10/03 09:29:30;;;;;;;0.00;0.00;;;;;;;15.70;100.00;101359.69;5109058;28;20150;-47
2023/10/03 09:32:16;;;;;;;0.00;0.00;;;;;;;15.67;100.00;101371.75;5108804;28;20047;-47
2023/10/03 09:34:56;;;;;;;0.00;0.00;;;;;;;15.65;100.00;101376.53;5109681;28;20038;-45
2023/10/03 09:37:22;;;;;;;0.00;0.00;;;;;;;15.44;100.00;101392.94;5109149;28;20465;-48
2023/10/03 09:39:51;;;;;;;0.00;0.00;;;;;;;15.31;100.00;101401.81;5109096;28;20035;-52
2023/10/03 09:42:18;;;;;;;0.00;0.00;;;;;;;15.28;100.00;101402.22;5107796;28;20036;-53
2023/10/03 09:44:45;;;;;;;0.00;0.00;;;;;;;15.26;100.00;101407.84;5109355;28;20028;-48
2023/10/03 09:47:12;;;;;;;0.00;0.00;;;;;;;15.21;100.00;101420.31;5106585;28;20489;-46
2023/10/03 09:49:38;;;;;;;0.00;0.00;;;;;;;15.13;100.00;101419.44;5107475;28;20043;-47
2023/10/03 09:52:22;;;;;;;0.00;0.00;;;;;;;15.09;100.00;101429.00;5108050;28;20058;-46
2023/10/03 09:54:53;;;;;;;0.00;0.00;;;;;;;15.12;100.00;101428.63;5107002;28;20395;-49
2023/10/03 09:57:21;;;;;;;0.00;0.00;;;;;;;15.20;100.00;101434.94;5108751;28;20051;-45
2023/10/03 09:59:48;;;;;;;0.00;0.00;;;;;;;15.33;100.00;101435.84;5108937;28;20035;-45
2023/10/03 10:02:30;;;;;;;0.00;0.00;;;;;;;15.36;100.00;101424.59;5108589;28;20043;-46
2023/10/03 10:04:59;;;;;;;0.00;0.00;;;;;;;15.39;100.00;101420.66;5105124;28;20044;-42
2023/10/03 10:07:50;;;;;;;0.00;0.00;;;;;;;15.50;100.00;101414.66;5104643;28;20470;-43
2023/10/03 10:10:19;;;;;;;0.00;0.00;;;;;;;15.64;100.00;101403.88;5112392;28;20453;-47
2023/10/03 10:13:04;;;;;;;0.00;0.00;;;;;;;15.71;100.00;101415.63;5112452;28;20462;-45
2023/10/03 10:15:31;;;;;;;0.00;0.00;;;;;;;15.78;100.00;101421.94;5112242;28;20101;-43
2023/10/03 10:17:56;;;;;;;0.00;0.00;;;;;;;15.73;100.00;101414.38;5113193;28;20036;-45
2023/10/03 10:20:32;;;;;;;0.00;0.00;;;;;;;15.63;100.00;101426.63;5111702;28;20031;-45
2023/10/03 10:22:58;;;;;;;0.00;0.00;;;;;;;15.56;100.00;101424.72;5111159;28;20031;-47
2023/10/03 10:25:27;;;;;;;0.00;0.00;;;;;;;15.51;100.00;101432.63;5109728;28;20034;-46
2023/10/03 10:28:05;;;;;;;0.00;0.00;;;;;;;15.50;100.00;101441.78;5112232;28;20028;-46
2023/10/03 10:30:34;;;;;;;0.00;0.00;;;;;;;15.37;100.00;101450.66;5110895;28;20111;-46
2023/10/03 10:33:14;;;;;;;0.00;0.00;;;;;;;15.28;100.00;101470.03;5107175;28;20040;-46
2023/10/03 10:35:54;;;;;;;0.00;0.00;;;;;;;15.23;100.00;101469.78;5109876;28;20032;-49
2023/10/03 10:38:20;;;;;;;0.00;0.00;;;;;;;15.20;100.00;101478.31;5109294;28;20020;-47
2023/10/03 10:41:27;;;;;;;0.00;0.00;;;;;;;15.10;100.00;101479.47;5111417;28;20043;-47
2023/10/03 10:44:16;;;;;;;0.00;0.00;;;;;;;15.09;100.00;101504.09;5110416;27;20054;-44
2023/10/03 10:46:44;;;;;;;0.00;0.00;;;;;;;15.07;100.00;101500.72;5111362;27;20029;-45
2023/10/03 10:49:31;;;;;;;0.00;0.00;;;;;;;15.00;100.00;101503.38;5116161;27;20067;-48
2023/10/03 10:51:57;;;;;;;0.00;0.00;;;;;;;14.93;100.00;101521.47;5120317;27;20462;-46
2023/10/03 10:54:24;;;;;;;0.00;0.00;;;;;;;14.84;100.00;101518.03;5104095;28;20067;-47
2023/10/03 10:57:03;;;;;;;0.00;0.00;;;;;;;14.78;100.00;101539.66;5105524;28;20035;-48
2023/10/03 10:59:29;;;;;;;0.00;0.00;;;;;;;14.75;100.00;101550.88;5107224;27;20039;-47
2023/10/03 11:01:57;;;;;;;0.00;0.00;;;;;;;14.60;100.00;101559.88;5115029;27;20039;-47
2023/10/03 11:04:24;;;;;;;0.00;0.00;;;;;;;14.54;100.00;101560.66;5115099;27;20090;-50
2023/10/03 11:06:52;;;;;;;0.00;0.00;;;;;;;14.49;100.00;101582.84;5115028;28;20023;-49
2023/10/03 11:09:20;;;;;;;0.00;0.00;;;;;;;14.47;100.00;101581.38;5114668;28;20373;-49
2023/10/03 11:11:46;;;;;;;0.00;0.00;;;;;;;14.48;100.00;101583.03;5114527;28;20043;-53
2023/10/03 11:14:11;;;;;;;0.00;0.00;;;;;;;14.53;100.00;101590.63;5108054;27;20039;-50
2023/10/03 11:16:37;;;;;;;0.00;0.00;;;;;;;14.63;100.00;101585.75;5110174;28;20023;-48
2023/10/03 11:19:04;;;;;;;0.00;0.00;;;;;;;14.84;100.00;101599.31;5109479;28;20038;-48
2023/10/03 11:21:30;;;;;;;0.00;0.00;;;;;;;15.20;100.00;101594.91;5105524;28;20474;-47